Terminal Aerodrome Forecast
Issued by NWS

Home | Current Version | Previous Version | Text Only | Print | Product List | Glossary Off
Versions: 1 2 3 4 5 6 7 8 9 10 11 12 13 14 15 16

757
FTUS43 KMPX 081139
TAFRNH
TAF
KRNH 081139Z 0812/0912 32011G18KT 6SM -SN OVC020
      TEMPO 0812/0816 3SM -SN
     FM081700 32011G19KT 6SM -SN OVC025
     FM090200 33009G16KT P6SM OVC040=

USA.gov is the U.S. government's official web portal to all federal, state and local government web resources and services.